Time;durP1;ratioP1;P1;durP2;ratioP2;P2;SDS_P1;SDS_P2;PMS_P1;PMS_P2;Temp;Humidity;BMP_temperature;BMP_pressure;BME280_temperature;BME280_humidity;BME280_pressure;Samples;Min_cycle;Max_cycle;Signal;HPM_P1;HPM_P2
2022/11/20 00:01:34;;;;;;;;;0.00;0.00;;;;;;;;5071410;28;9838;-91
2022/11/20 00:04:00;;;;;;;;;0.00;0.00;;;;;;;;5086750;28;8894;-91
2022/11/20 00:06:26;;;;;;;;;0.00;0.00;;;;;;;;5093853;28;9577;-92
2022/11/20 00:08:53;;;;;;;;;0.00;0.00;;;;;;;;5094217;28;8803;-90
2022/11/20 00:11:20;;;;;;;;;0.00;0.00;;;;;;;;5076050;28;8925;-92
2022/11/20 00:13:46;;;;;;;;;0.00;0.00;;;;;;;;5074613;28;8786;-91
2022/11/20 00:16:12;;;;;;;;;0.00;0.00;;;;;;;;5067804;28;8791;-92
2022/11/20 00:18:37;;;;;;;;;0.00;0.00;;;;;;;;5052327;28;9617;-90
2022/11/20 00:21:04;;;;;;;;;0.00;0.00;;;;;;;;5052182;28;8817;-92
2022/11/20 00:23:29;;;;;;;;;0.00;0.00;;;;;;;;5052450;28;8822;-91
2022/11/20 00:25:54;;;;;;;;;0.00;0.00;;;;;;;;5052645;28;8837;-91
2022/11/20 00:28:19;;;;;;;;;0.00;0.00;;;;;;;;5052452;28;8811;-91
2022/11/20 00:30:44;;;;;;;;;0.00;0.00;;;;;;;;5051540;28;8823;-90
2022/11/20 00:33:10;;;;;;;;;0.00;0.00;;;;;;;;5051062;28;8819;-90
2022/11/20 00:35:35;;;;;;;;;0.00;0.00;;;;;;;;5050561;28;9448;-91
2022/11/20 00:38:00;;;;;;;;;0.00;0.00;;;;;;;;5052095;28;8830;-90
2022/11/20 00:40:25;;;;;;;;;0.00;0.00;;;;;;;;5052099;28;8835;-90
2022/11/20 00:42:50;;;;;;;;;0.00;0.00;;;;;;;;5052165;28;9344;-88
2022/11/20 00:45:16;;;;;;;;;0.00;0.00;;;;;;;;5050432;28;8783;-90
2022/11/20 00:47:41;;;;;;;;;0.00;0.00;;;;;;;;5052025;28;8815;-91
2022/11/20 00:50:06;;;;;;;;;0.00;0.00;;;;;;;;5050981;28;8826;-89
2022/11/20 00:52:31;;;;;;;;;0.00;0.00;;;;;;;;5052075;28;8864;-92
2022/11/20 00:54:56;;;;;;;;;0.00;0.00;;;;;;;;5049890;28;9706;-89
2022/11/20 00:57:22;;;;;;;;;0.00;0.00;;;;;;;;5051192;28;8838;-90
2022/11/20 00:59:47;;;;;;;;;0.00;0.00;;;;;;;;5050772;28;9711;-88
2022/11/20 01:02:12;;;;;;;;;0.00;0.00;;;;;;;;5052105;28;9554;-90
2022/11/20 01:04:37;;;;;;;;;0.00;0.00;;;;;;;;5051042;28;8819;-89
2022/11/20 01:07:02;;;;;;;;;0.00;0.00;;;;;;;;5051734;28;8910;-90
2022/11/20 01:09:28;;;;;;;;;0.00;0.00;;;;;;;;5051126;28;8818;-91
2022/11/20 01:11:53;;;;;;;;;0.00;0.00;;;;;;;;5050294;28;9153;-89
2022/11/20 01:14:18;;;;;;;;;0.00;0.00;;;;;;;;5051116;28;9403;-90
2022/11/20 01:16:45;;;;;;;;;0.00;0.00;;;;;;;;5061452;28;9841;-89
2022/11/20 01:19:13;;;;;;;;;0.00;0.00;;;;;;;;5092056;28;8728;-89
2022/11/20 01:21:39;;;;;;;;;0.00;0.00;;;;;;;;5074011;28;8783;-90
2022/11/20 01:24:05;;;;;;;;;0.00;0.00;;;;;;;;5091287;28;8795;-92
2022/11/20 01:26:32;;;;;;;;;0.00;0.00;;;;;;;;5073522;28;9426;-90
2022/11/20 01:28:58;;;;;;;;;0.00;0.00;;;;;;;;5090342;28;8787;-88
2022/11/20 01:31:24;;;;;;;;;0.00;0.00;;;;;;;;5091497;28;8775;-86
2022/11/20 01:33:51;;;;;;;;;0.00;0.00;;;;;;;;5074642;28;8791;-94
2022/11/20 01:36:17;;;;;;;;;0.00;0.00;;;;;;;;5074482;28;8814;-93
2022/11/20 01:38:43;;;;;;;;;0.00;0.00;;;;;;;;5073994;28;8797;-94
2022/11/20 01:41:09;;;;;;;;;0.00;0.00;;;;;;;;5073873;28;8811;-93
2022/11/20 01:43:34;;;;;;;;;0.00;0.00;;;;;;;;5072427;28;8799;-93
2022/11/20 01:46:11;;;;;;;;;0.00;0.00;;;;;;;;5073189;28;8818;-93
2022/11/20 01:48:46;;;;;;;;;0.00;0.00;;;;;;;;5073096;28;8782;-93
2022/11/20 01:51:18;;;;;;;;;0.00;0.00;;;;;;;;5070879;28;8789;-93
2022/11/20 01:53:44;;;;;;;;;0.00;0.00;;;;;;;;5067366;28;8826;-92
2022/11/20 01:56:11;;;;;;;;;0.00;0.00;;;;;;;;5073355;28;8806;-92
2022/11/20 01:58:39;;;;;;;;;0.00;0.00;;;;;;;;5074580;28;8806;-93
2022/11/20 02:01:04;;;;;;;;;0.00;0.00;;;;;;;;5075201;28;8892;-93
2022/11/20 02:03:30;;;;;;;;;0.00;0.00;;;;;;;;5077362;28;8810;-93
2022/11/20 02:05:55;;;;;;;;;0.00;0.00;;;;;;;;5080880;28;8807;-93
2022/11/20 02:08:21;;;;;;;;;0.00;0.00;;;;;;;;5081793;28;8909;-94
2022/11/20 02:10:46;;;;;;;;;0.00;0.00;;;;;;;;5076675;28;8802;-93
2022/11/20 02:15:56;;;;;;;;;0.00;0.00;;;;;;;;5090843;28;8791;-94
2022/11/20 02:18:22;;;;;;;;;0.00;0.00;;;;;;;;5073928;28;8927;-93
2022/11/20 02:20:50;;;;;;;;;0.00;0.00;;;;;;;;5073351;28;8826;-94
2022/11/20 02:23:26;;;;;;;;;0.00;0.00;;;;;;;;5081750;28;9038;-92
2022/11/20 02:25:54;;;;;;;;;0.00;0.00;;;;;;;;5091751;28;8759;-92
2022/11/20 02:28:19;;;;;;;;;0.00;0.00;;;;;;;;5073340;28;8807;-92
2022/11/20 02:30:44;;;;;;;;;0.00;0.00;;;;;;;;5072996;28;8838;-93
2022/11/20 02:33:09;;;;;;;;;0.00;0.00;;;;;;;;5073568;28;8833;-93
2022/11/20 02:35:35;;;;;;;;;0.00;0.00;;;;;;;;5090717;28;8912;-93
2022/11/20 02:38:01;;;;;;;;;0.00;0.00;;;;;;;;5073143;28;9608;-93
2022/11/20 02:40:27;;;;;;;;;0.00;0.00;;;;;;;;5073869;28;9116;-92
2022/11/20 02:42:53;;;;;;;;;0.00;0.00;;;;;;;;5073012;28;8810;-92
2022/11/20 02:45:18;;;;;;;;;0.00;0.00;;;;;;;;5072278;28;8790;-92
2022/11/20 02:47:43;;;;;;;;;0.00;0.00;;;;;;;;5073423;28;8806;-93
2022/11/20 02:50:08;;;;;;;;;0.00;0.00;;;;;;;;5072918;28;8838;-93
2022/11/20 02:52:34;;;;;;;;;0.00;0.00;;;;;;;;5091141;28;8861;-92
2022/11/20 02:54:59;;;;;;;;;0.00;0.00;;;;;;;;5073109;28;8795;-93
2022/11/20 02:57:24;;;;;;;;;0.00;0.00;;;;;;;;5073254;28;8819;-92
2022/11/20 02:59:49;;;;;;;;;0.00;0.00;;;;;;;;5074090;28;8830;-91
2022/11/20 03:02:15;;;;;;;;;0.00;0.00;;;;;;;;5077869;28;8807;-93
2022/11/20 03:04:40;;;;;;;;;0.00;0.00;;;;;;;;5079167;28;8825;-93
2022/11/20 03:07:05;;;;;;;;;0.00;0.00;;;;;;;;5079907;28;8787;-93
2022/11/20 03:09:30;;;;;;;;;0.00;0.00;;;;;;;;5080143;28;8904;-93
2022/11/20 03:11:56;;;;;;;;;0.00;0.00;;;;;;;;5097738;28;8819;-92
2022/11/20 03:14:21;;;;;;;;;0.00;0.00;;;;;;;;5079156;28;8810;-92
2022/11/20 03:16:46;;;;;;;;;0.00;0.00;;;;;;;;5083198;28;8861;-92
2022/11/20 03:19:11;;;;;;;;;0.00;0.00;;;;;;;;5080313;28;8823;-93
2022/11/20 03:21:37;;;;;;;;;0.00;0.00;;;;;;;;5077347;28;8803;-93
2022/11/20 03:24:02;;;;;;;;;0.00;0.00;;;;;;;;5077593;28;8799;-93
2022/11/20 03:26:27;;;;;;;;;0.00;0.00;;;;;;;;5076223;28;8884;-93
2022/11/20 03:28:57;;;;;;;;;0.00;0.00;;;;;;;;5075561;28;8803;-93
2022/11/20 03:31:27;;;;;;;;;0.00;0.00;;;;;;;;5075481;28;8900;-93
2022/11/20 03:33:53;;;;;;;;;0.00;0.00;;;;;;;;5093550;28;8856;-93
2022/11/20 03:36:18;;;;;;;;;0.00;0.00;;;;;;;;5076336;28;8787;-92
2022/11/20 03:38:44;;;;;;;;;0.00;0.00;;;;;;;;5076033;28;8803;-93
2022/11/20 03:41:26;;;;;;;;;0.00;0.00;;;;;;;;5076079;28;8810;-92
2022/11/20 03:43:59;;;;;;;;;0.00;0.00;;;;;;;;5093449;28;8814;-93
2022/11/20 03:46:24;;;;;;;;;0.00;0.00;;;;;;;;5075998;28;8790;-93
2022/11/20 03:48:49;;;;;;;;;0.00;0.00;;;;;;;;5074478;28;8799;-93
2022/11/20 03:51:17;;;;;;;;;0.00;0.00;;;;;;;;5065608;28;8802;-92
2022/11/20 03:53:43;;;;;;;;;0.00;0.00;;;;;;;;5076025;28;8898;-92
2022/11/20 03:56:09;;;;;;;;;0.00;0.00;;;;;;;;5075797;28;8806;-93
2022/11/20 03:58:37;;;;;;;;;0.00;0.00;;;;;;;;5075795;28;8875;-92
2022/11/20 04:01:06;;;;;;;;;0.00;0.00;;;;;;;;5075659;28;8823;-92
2022/11/20 04:03:31;;;;;;;;;0.00;0.00;;;;;;;;5075323;28;8805;-92
2022/11/20 04:06:01;;;;;;;;;0.00;0.00;;;;;;;;5075934;28;9554;-93
2022/11/20 04:08:26;;;;;;;;;0.00;0.00;;;;;;;;5094675;28;8824;-93
2022/11/20 04:10:51;;;;;;;;;0.00;0.00;;;;;;;;5094383;28;9718;-93
2022/11/20 04:13:16;;;;;;;;;0.00;0.00;;;;;;;;5076884;28;8811;-92
2022/11/20 04:15:41;;;;;;;;;0.00;0.00;;;;;;;;5078679;28;8841;-92
2022/11/20 04:18:07;;;;;;;;;0.00;0.00;;;;;;;;5081489;28;8897;-92
2022/11/20 04:20:32;;;;;;;;;0.00;0.00;;;;;;;;5082522;28;8883;-92
2022/11/20 04:22:57;;;;;;;;;0.00;0.00;;;;;;;;5075859;28;8809;-92
2022/11/20 04:25:22;;;;;;;;;0.00;0.00;;;;;;;;5079518;28;8815;-93
2022/11/20 04:27:47;;;;;;;;;0.00;0.00;;;;;;;;5074911;28;8919;-94
2022/11/20 04:30:13;;;;;;;;;0.00;0.00;;;;;;;;5094531;28;8823;-93
2022/11/20 04:32:38;;;;;;;;;0.00;0.00;;;;;;;;5075077;28;8819;-93
2022/11/20 04:35:03;;;;;;;;;0.00;0.00;;;;;;;;5075390;28;8802;-93
2022/11/20 04:37:29;;;;;;;;;0.00;0.00;;;;;;;;5075385;28;8911;-93
2022/11/20 04:39:54;;;;;;;;;0.00;0.00;;;;;;;;5075124;28;8849;-93
2022/11/20 04:42:28;;;;;;;;;0.00;0.00;;;;;;;;5075634;28;8803;-93
2022/11/20 04:44:54;;;;;;;;;0.00;0.00;;;;;;;;5074002;28;8869;-93
2022/11/20 04:47:19;;;;;;;;;0.00;0.00;;;;;;;;5075114;28;8826;-93
2022/11/20 04:49:44;;;;;;;;;0.00;0.00;;;;;;;;5075013;28;8809;-92
2022/11/20 04:52:10;;;;;;;;;0.00;0.00;;;;;;;;5074795;28;8879;-93
2022/11/20 04:54:35;;;;;;;;;0.00;0.00;;;;;;;;5074949;28;8828;-92
2022/11/20 04:57:00;;;;;;;;;0.00;0.00;;;;;;;;5075326;28;8842;-93
2022/11/20 04:59:25;;;;;;;;;0.00;0.00;;;;;;;;5073557;28;8899;-92
2022/11/20 05:01:50;;;;;;;;;0.00;0.00;;;;;;;;5074292;28;8891;-93
2022/11/20 05:04:16;;;;;;;;;0.00;0.00;;;;;;;;5074840;28;8908;-93
2022/11/20 05:06:41;;;;;;;;;0.00;0.00;;;;;;;;5075213;28;8799;-93
2022/11/20 05:09:06;;;;;;;;;0.00;0.00;;;;;;;;5074691;28;8929;-93
2022/11/20 05:11:31;;;;;;;;;0.00;0.00;;;;;;;;5074693;28;8935;-93
2022/11/20 05:13:58;;;;;;;;;0.00;0.00;;;;;;;;5073928;28;8970;-93
2022/11/20 05:16:23;;;;;;;;;0.00;0.00;;;;;;;;5075120;28;8883;-93
2022/11/20 05:18:49;;;;;;;;;0.00;0.00;;;;;;;;5076849;28;8815;-93
2022/11/20 05:21:15;;;;;;;;;0.00;0.00;;;;;;;;5077177;28;8767;-92
2022/11/20 05:23:40;;;;;;;;;0.00;0.00;;;;;;;;5081638;28;8791;-92
2022/11/20 05:26:07;;;;;;;;;0.00;0.00;;;;;;;;5081709;28;8794;-92
2022/11/20 05:28:32;;;;;;;;;0.00;0.00;;;;;;;;5096645;28;8806;-92
2022/11/20 05:31:08;;;;;;;;;0.00;0.00;;;;;;;;5074108;28;8787;-93
2022/11/20 05:33:34;;;;;;;;;0.00;0.00;;;;;;;;5075735;28;8794;-93
2022/11/20 05:35:59;;;;;;;;;0.00;0.00;;;;;;;;5074607;28;8783;-93
2022/11/20 05:38:24;;;;;;;;;0.00;0.00;;;;;;;;5074616;28;8811;-93
2022/11/20 05:40:49;;;;;;;;;0.00;0.00;;;;;;;;5074244;28;8814;-93
2022/11/20 05:43:14;;;;;;;;;0.00;0.00;;;;;;;;5074043;28;8811;-92
2022/11/20 05:45:40;;;;;;;;;0.00;0.00;;;;;;;;5073849;28;8806;-93
2022/11/20 05:48:05;;;;;;;;;0.00;0.00;;;;;;;;5074216;28;8877;-93
2022/11/20 05:50:30;;;;;;;;;0.00;0.00;;;;;;;;5070681;28;8808;-93
2022/11/20 05:52:58;;;;;;;;;0.00;0.00;;;;;;;;5070625;28;8808;-93
2022/11/20 05:55:23;;;;;;;;;0.00;0.00;;;;;;;;5070840;28;8812;-92
2022/11/20 05:57:48;;;;;;;;;0.00;0.00;;;;;;;;5070966;28;8809;-93
2022/11/20 06:00:13;;;;;;;;;0.00;0.00;;;;;;;;5069488;28;8813;-93
2022/11/20 06:02:39;;;;;;;;;0.00;0.00;;;;;;;;5091875;28;8811;-93
2022/11/20 06:05:04;;;;;;;;;0.00;0.00;;;;;;;;5074185;28;8799;-92
2022/11/20 06:07:29;;;;;;;;;0.00;0.00;;;;;;;;5074162;28;8838;-94
2022/11/20 06:09:55;;;;;;;;;0.00;0.00;;;;;;;;5073863;28;8787;-93
2022/11/20 06:12:20;;;;;;;;;0.00;0.00;;;;;;;;5074008;28;8790;-93
2022/11/20 06:14:45;;;;;;;;;0.00;0.00;;;;;;;;5072391;28;9210;-93
2022/11/20 06:17:10;;;;;;;;;0.00;0.00;;;;;;;;5073935;28;8819;-93
2022/11/20 06:19:35;;;;;;;;;0.00;0.00;;;;;;;;5073793;28;8817;-93
2022/11/20 06:22:01;;;;;;;;;0.00;0.00;;;;;;;;5075905;28;8899;-93
2022/11/20 06:24:26;;;;;;;;;0.00;0.00;;;;;;;;5076340;28;8810;-93
2022/11/20 06:26:51;;;;;;;;;0.00;0.00;;;;;;;;5075995;28;8795;-94
2022/11/20 06:29:16;;;;;;;;;0.00;0.00;;;;;;;;5099027;28;8794;-93
2022/11/20 06:31:42;;;;;;;;;0.00;0.00;;;;;;;;5080601;28;8838;-93
2022/11/20 06:34:08;;;;;;;;;0.00;0.00;;;;;;;;5078143;28;8803;-94
2022/11/20 06:36:33;;;;;;;;;0.00;0.00;;;;;;;;5073915;28;8795;-94
2022/11/20 06:38:59;;;;;;;;;0.00;0.00;;;;;;;;5073771;28;9657;-94
2022/11/20 06:41:25;;;;;;;;;0.00;0.00;;;;;;;;5073086;28;8846;-92
2022/11/20 06:43:50;;;;;;;;;0.00;0.00;;;;;;;;5073612;28;8834;-92
2022/11/20 06:46:18;;;;;;;;;0.00;0.00;;;;;;;;5072636;28;8809;-93
2022/11/20 06:48:44;;;;;;;;;0.00;0.00;;;;;;;;5073423;28;8783;-93
2022/11/20 06:51:09;;;;;;;;;0.00;0.00;;;;;;;;5073712;28;8820;-93
2022/11/20 06:53:35;;;;;;;;;0.00;0.00;;;;;;;;5073530;28;8791;-93
2022/11/20 06:56:00;;;;;;;;;0.00;0.00;;;;;;;;5072711;28;8834;-93
2022/11/20 06:58:27;;;;;;;;;0.00;0.00;;;;;;;;5072853;28;8803;-94
2022/11/20 07:00:52;;;;;;;;;0.00;0.00;;;;;;;;5072799;28;9218;-93
2022/11/20 07:03:18;;;;;;;;;0.00;0.00;;;;;;;;5073039;28;9620;-93
2022/11/20 07:05:44;;;;;;;;;0.00;0.00;;;;;;;;5073067;28;8907;-93
2022/11/20 07:08:10;;;;;;;;;0.00;0.00;;;;;;;;5073659;28;8779;-92
2022/11/20 07:10:35;;;;;;;;;0.00;0.00;;;;;;;;5069573;28;8878;-94
2022/11/20 07:13:00;;;;;;;;;0.00;0.00;;;;;;;;5070210;28;8908;-92
2022/11/20 07:15:26;;;;;;;;;0.00;0.00;;;;;;;;5052931;28;8793;-93
2022/11/20 07:17:51;;;;;;;;;0.00;0.00;;;;;;;;5053618;28;8817;-94
2022/11/20 07:20:17;;;;;;;;;0.00;0.00;;;;;;;;5061487;28;8814;-94
2022/11/20 07:22:42;;;;;;;;;0.00;0.00;;;;;;;;5073556;28;8819;-92
2022/11/20 07:25:08;;;;;;;;;27.00;27.00;;;;;;;;5073307;28;8775;-94
2022/11/20 07:27:34;;;;;;;;;0.00;0.00;;;;;;;;5074503;28;8882;-94
2022/11/20 07:29:59;;;;;;;;;0.00;0.00;;;;;;;;5074131;28;8795;-93
2022/11/20 07:32:24;;;;;;;;;0.00;0.00;;;;;;;;5075637;28;8787;-93
2022/11/20 07:34:49;;;;;;;;;0.00;0.00;;;;;;;;5078751;28;9578;-92
2022/11/20 07:37:15;;;;;;;;;0.00;0.00;;;;;;;;5080409;28;8787;-92
2022/11/20 07:39:40;;;;;;;;;0.00;0.00;;;;;;;;5077262;28;8921;-92
2022/11/20 07:42:06;;;;;;;;;0.00;0.00;;;;;;;;5073505;28;8779;-93
2022/11/20 07:44:31;;;;;;;;;0.00;0.00;;;;;;;;5071690;28;8802;-93
2022/11/20 07:46:57;;;;;;;;;0.00;0.00;;;;;;;;5075572;28;8791;-93
2022/11/20 07:49:22;;;;;;;;;0.00;0.00;;;;;;;;5076190;28;8827;-93
2022/11/20 07:51:50;;;;;;;;;0.00;0.00;;;;;;;;5076405;28;8810;-94
2022/11/20 07:54:15;;;;;;;;;0.00;0.00;;;;;;;;5075980;28;9776;-93
2022/11/20 07:56:40;;;;;;;;;1.00;0.00;;;;;;;;5076462;28;8819;-94
2022/11/20 07:59:05;;;;;;;;;0.00;0.00;;;;;;;;5075623;28;8811;-93
2022/11/20 08:01:30;;;;;;;;;0.00;0.00;;;;;;;;5075505;28;8835;-93
2022/11/20 08:03:56;;;;;;;;;0.00;0.00;;;;;;;;5077347;28;8799;-93
2022/11/20 08:06:21;;;;;;;;;0.00;0.00;;;;;;;;5075807;28;8815;-93
2022/11/20 08:08:46;;;;;;;;;0.00;0.00;;;;;;;;5093750;28;8763;-93
2022/11/20 08:14:14;;;;;;;;;0.00;0.00;;;;;;;;5093725;28;8779;-93
2022/11/20 08:16:39;;;;;;;;;0.00;0.00;;;;;;;;5074766;28;9582;-93
2022/11/20 08:19:05;;;;;;;;;0.00;0.00;;;;;;;;5075934;28;8814;-93
2022/11/20 08:21:30;;;;;;;;;0.00;0.00;;;;;;;;5075525;28;8827;-93
2022/11/20 08:23:56;;;;;;;;;0.00;0.00;;;;;;;;5075528;28;8799;-93
2022/11/20 08:26:22;;;;;;;;;0.00;0.00;;;;;;;;5094012;28;8763;-94
2022/11/20 08:28:48;;;;;;;;;1.00;1.00;;;;;;;;5075462;28;8787;-93
2022/11/20 08:31:13;;;;;;;;;0.00;0.00;;;;;;;;5075435;28;8943;-93
2022/11/20 08:33:38;;;;;;;;;0.00;0.00;;;;;;;;5075947;28;8811;-93
2022/11/20 08:36:04;;;;;;;;;0.00;0.00;;;;;;;;5076234;28;8829;-93
2022/11/20 08:38:30;;;;;;;;;0.00;0.00;;;;;;;;5078795;28;8839;-91
2022/11/20 08:44:01;;;;;;;;;0.00;0.00;;;;;;;;5047162;28;8834;-93
2022/11/20 08:46:30;;;;;;;;;0.00;0.00;;;;;;;;5030369;28;8809;-93
2022/11/20 08:48:55;;;;;;;;;0.00;0.00;;;;;;;;5031222;28;8730;-93
2022/11/20 08:51:21;;;;;;;;;0.00;0.00;;;;;;;;5032722;28;8797;-93
2022/11/20 08:53:48;;;;;;;;;0.00;0.00;;;;;;;;5050901;28;8807;-95
2022/11/20 08:56:13;;;;;;;;;0.00;0.00;;;;;;;;5047930;28;8826;-93
2022/11/20 08:58:39;;;;;;;;;0.00;0.00;;;;;;;;5045081;28;8845;-93
2022/11/20 09:01:04;;;;;;;;;0.00;0.00;;;;;;;;5044242;28;28566;-93
2022/11/20 09:03:30;;;;;;;;;0.00;0.00;;;;;;;;5022702;28;40396;-94
2022/11/20 09:05:59;;;;;;;;;0.00;0.00;;;;;;;;5028885;28;28676;-93
2022/11/20 09:08:24;;;;;;;;;0.00;0.00;;;;;;;;5000374;28;28475;-93
2022/11/20 09:10:52;;;;;;;;;0.00;0.00;;;;;;;;5018316;28;38991;-94
2022/11/20 09:13:18;;;;;;;;;0.00;0.00;;;;;;;;5011369;28;30782;-93
2022/11/20 09:15:43;;;;;;;;;0.00;0.00;;;;;;;;5039236;28;29847;-92
2022/11/20 09:18:08;;;;;;;;;0.00;0.00;;;;;;;;5064450;28;8826;-93
2022/11/20 09:20:33;;;;;;;;;0.00;0.00;;;;;;;;5070678;28;27820;-93
2022/11/20 09:22:58;;;;;;;;;0.00;0.00;;;;;;;;5069194;28;29862;-92
2022/11/20 09:25:24;;;;;;;;;3.00;3.00;;;;;;;;5093815;28;8775;-95
2022/11/20 09:27:56;;;;;;;;;0.00;0.00;;;;;;;;5075076;28;8837;-92
2022/11/20 09:30:21;;;;;;;;;0.00;0.00;;;;;;;;5066547;28;42210;-94
2022/11/20 09:32:46;;;;;;;;;1.00;1.00;;;;;;;;5053287;28;30337;-94
2022/11/20 09:35:12;;;;;;;;;0.00;0.00;;;;;;;;5055466;28;28735;-91
2022/11/20 09:37:37;;;;;;;;;0.00;0.00;;;;;;;;5078282;28;28438;-91
2022/11/20 09:40:02;;;;;;;;;0.00;0.00;;;;;;;;5057472;28;40374;-92
2022/11/20 09:42:37;;;;;;;;;0.00;0.00;;;;;;;;5075778;28;28427;-96
2022/11/20 09:45:14;;;;;;;;;0.00;0.00;;;;;;;;5081650;28;28311;-93
2022/11/20 09:47:43;;;;;;;;;0.00;0.00;;;;;;;;5085762;28;28413;-90
2022/11/20 09:50:14;;;;;;;;;0.00;0.00;;;;;;;;5071318;28;38019;-92
2022/11/20 09:52:57;;;;;;;;;0.00;0.00;;;;;;;;5054231;28;30801;-90
2022/11/20 09:55:23;;;;;;;;;0.00;0.00;;;;;;;;5071101;28;28556;-89
2022/11/20 09:57:50;;;;;;;;;0.00;0.00;;;;;;;;5053922;28;28540;-88
2022/11/20 10:00:16;;;;;;;;;0.00;0.00;;;;;;;;5051143;28;28629;-89
2022/11/20 10:02:47;;;;;;;;;0.00;0.00;;;;;;;;5070800;28;30557;-89
2022/11/20 10:05:27;;;;;;;;;0.00;0.00;;;;;;;;5071369;28;27982;-92
2022/11/20 10:07:55;;;;;;;;;0.00;0.00;;;;;;;;5053397;28;28569;-92
2022/11/20 10:10:30;;;;;;;;;0.00;0.00;;;;;;;;5077892;28;28485;-93
2022/11/20 10:13:14;;;;;;;;;0.00;0.00;;;;;;;;5079697;28;28532;-93
2022/11/20 10:15:55;;;;;;;;;0.00;0.00;;;;;;;;5061081;28;28764;-92
2022/11/20 10:18:34;;;;;;;;;0.00;0.00;;;;;;;;5071898;28;28561;-93
2022/11/20 10:21:02;;;;;;;;;5.33;5.33;;;;;;;;5070327;28;28422;-92
2022/11/20 10:23:46;;;;;;;;;0.00;0.00;;;;;;;;5052352;28;28621;-92
2022/11/20 10:26:12;;;;;;;;;0.00;0.00;;;;;;;;5071094;28;28334;-93
2022/11/20 10:28:44;;;;;;;;;0.00;0.00;;;;;;;;5070575;28;28457;-93
2022/11/20 10:31:15;;;;;;;;;0.00;0.00;;;;;;;;5051896;28;28787;-92
2022/11/20 10:33:43;;;;;;;;;0.00;0.00;;;;;;;;5071193;28;28461;-93
2022/11/20 10:36:20;;;;;;;;;0.00;0.00;;;;;;;;5052908;28;28622;-93
2022/11/20 10:38:53;;;;;;;;;0.00;0.00;;;;;;;;5074508;28;28454;-93
2022/11/20 10:41:27;;;;;;;;;0.00;0.00;;;;;;;;5063091;28;28471;-92
2022/11/20 10:44:09;;;;;;;;;0.00;0.00;;;;;;;;5063452;28;30127;-92
2022/11/20 10:46:38;;;;;;;;;0.00;0.00;;;;;;;;5074474;28;28510;-92
2022/11/20 10:49:04;;;;;;;;;0.00;0.00;;;;;;;;5074526;28;28266;-90
2022/11/20 10:51:30;;;;;;;;;2.00;2.00;;;;;;;;5097818;28;28382;-92
2022/11/20 10:53:58;;;;;;;;;0.00;0.00;;;;;;;;5060932;28;29080;-93
2022/11/20 10:56:27;;;;;;;;;0.00;0.00;;;;;;;;5066794;28;27837;-92
2022/11/20 10:58:52;;;;;;;;;0.00;0.00;;;;;;;;5085009;28;28402;-91
2022/11/20 11:01:18;;;;;;;;;0.00;0.00;;;;;;;;5055395;28;28497;-92
2022/11/20 11:03:44;;;;;;;;;0.00;0.00;;;;;;;;5070080;28;29518;-92
2022/11/20 11:06:12;;;;;;;;;0.00;0.00;;;;;;;;5064665;28;28658;-92
2022/11/20 11:08:38;;;;;;;;;0.00;0.00;;;;;;;;5073599;28;28430;-92
2022/11/20 11:11:20;;;;;;;;;0.00;0.00;;;;;;;;5074251;28;28413;-92
2022/11/20 11:13:45;;;;;;;;;6.00;6.00;;;;;;;;5070667;28;28573;-92
2022/11/20 11:16:36;;;;;;;;;0.00;0.00;;;;;;;;5078391;28;28987;-91
2022/11/20 11:19:05;;;;;;;;;0.00;0.00;;;;;;;;5048946;28;28650;-92
2022/11/20 11:21:30;;;;;;;;;0.00;0.00;;;;;;;;5059384;28;28471;-89
2022/11/20 11:24:00;;;;;;;;;0.00;0.00;;;;;;;;5061253;28;30240;-91
2022/11/20 11:26:25;;;;;;;;;0.00;0.00;;;;;;;;5078558;28;28638;-90
2022/11/20 11:28:57;;;;;;;;;0.00;0.00;;;;;;;;5077978;28;28595;-90
2022/11/20 11:31:26;;;;;;;;;0.00;0.00;;;;;;;;5048376;28;28657;-89
2022/11/20 11:33:52;;;;;;;;;0.00;0.00;;;;;;;;5074018;28;28488;-88
2022/11/20 11:36:19;;;;;;;;;0.67;0.67;;;;;;;;5056098;28;28915;-88
2022/11/20 11:38:44;;;;;;;;;0.00;0.00;;;;;;;;5055984;28;28494;-89
2022/11/20 11:41:15;;;;;;;;;15.00;15.00;;;;;;;;5057408;28;28425;-88
2022/11/20 11:46:34;;;;;;;;;0.00;0.00;;;;;;;;5054137;28;28463;-91
2022/11/20 11:49:00;;;;;;;;;0.00;0.00;;;;;;;;5055567;28;28488;-90
2022/11/20 11:51:48;;;;;;;;;0.00;0.00;;;;;;;;5036320;28;28530;-91
2022/11/20 11:54:25;;;;;;;;;0.00;0.00;;;;;;;;5030791;28;31221;-91
2022/11/20 11:56:50;;;;;;;;;0.00;0.00;;;;;;;;5054886;28;29009;-92
2022/11/20 11:59:23;;;;;;;;;0.00;0.00;;;;;;;;5039858;28;28418;-91
2022/11/20 12:01:52;;;;;;;;;7.00;7.00;;;;;;;;5073855;28;28559;-92
2022/11/20 12:04:25;;;;;;;;;0.00;0.00;;;;;;;;5075796;28;29432;-93
2022/11/20 12:06:53;;;;;;;;;24.00;24.00;;;;;;;;5056931;28;28817;-94
2022/11/20 12:09:19;;;;;;;;;0.00;0.00;;;;;;;;5057688;28;28384;-93
2022/11/20 12:11:45;;;;;;;;;0.00;0.00;;;;;;;;5074520;28;27893;-89
2022/11/20 12:14:19;;;;;;;;;0.00;0.00;;;;;;;;5075117;28;28406;-96
2022/11/20 12:16:44;;;;;;;;;0.00;0.00;;;;;;;;5072952;28;28588;-93
2022/11/20 12:19:13;;;;;;;;;0.00;0.00;;;;;;;;5055777;28;28610;-93
2022/11/20 12:21:39;;;;;;;;;0.00;0.00;;;;;;;;5055342;28;28652;-92
2022/11/20 12:24:19;;;;;;;;;0.00;0.00;;;;;;;;5074249;28;28551;-93
2022/11/20 12:26:59;;;;;;;;;0.00;0.00;;;;;;;;5073111;28;28819;-92
2022/11/20 12:29:24;;;;;;;;;0.00;0.00;;;;;;;;5053818;28;28745;-94
2022/11/20 12:31:50;;;;;;;;;0.00;0.00;;;;;;;;5054494;28;28503;-92
2022/11/20 12:34:15;;;;;;;;;0.00;0.00;;;;;;;;5055224;28;30170;-91
2022/11/20 12:36:44;;;;;;;;;0.00;0.00;;;;;;;;5073986;28;28367;-91
2022/11/20 12:39:24;;;;;;;;;0.00;0.00;;;;;;;;5055935;28;27848;-91
2022/11/20 12:45:10;;;;;;;;;0.00;0.00;;;;;;;;5072077;28;29025;-91
2022/11/20 12:47:54;;;;;;;;;0.00;0.00;;;;;;;;5056674;28;29809;-91
2022/11/20 12:50:25;;;;;;;;;0.00;0.00;;;;;;;;5073204;28;42168;-92
2022/11/20 12:52:57;;;;;;;;;0.00;0.00;;;;;;;;5057171;28;28478;-91
2022/11/20 12:55:36;;;;;;;;;0.00;0.00;;;;;;;;5071520;28;45588;-89
2022/11/20 12:58:17;;;;;;;;;0.00;0.00;;;;;;;;5094878;28;27778;-93
2022/11/20 13:00:52;;;;;;;;;0.00;0.00;;;;;;;;5104343;28;8830;-92
2022/11/20 13:03:19;;;;;;;;;0.00;0.00;;;;;;;;5088224;28;8841;-92
2022/11/20 13:06:02;;;;;;;;;0.00;0.00;;;;;;;;5076016;28;8814;-89
2022/11/20 13:08:38;;;;;;;;;0.00;0.00;;;;;;;;5080855;28;9718;-93
2022/11/20 13:11:04;;;;;;;;;0.00;0.00;;;;;;;;5099787;28;8789;-91
2022/11/20 13:13:32;;;;;;;;;29.33;29.33;;;;;;;;5106955;28;8916;-92
2022/11/20 13:15:57;;;;;;;;;0.00;0.00;;;;;;;;5102811;28;8776;-90
2022/11/20 13:18:23;;;;;;;;;0.00;0.00;;;;;;;;5083009;28;8854;-91
2022/11/20 13:20:49;;;;;;;;;0.00;0.00;;;;;;;;5092629;28;9412;-91
2022/11/20 13:23:25;;;;;;;;;0.00;0.00;;;;;;;;5060825;28;8811;-91
2022/11/20 13:25:52;;;;;;;;;0.67;0.67;;;;;;;;5072031;28;8990;-91
2022/11/20 13:28:18;;;;;;;;;0.00;0.00;;;;;;;;5087095;28;8858;-90
2022/11/20 13:30:51;;;;;;;;;0.00;0.00;;;;;;;;5070664;28;8803;-90
2022/11/20 13:33:37;;;;;;;;;0.00;0.00;;;;;;;;5091160;28;8772;-89
2022/11/20 13:36:03;;;;;;;;;0.00;0.00;;;;;;;;5068379;28;8841;-90
2022/11/20 13:38:40;;;;;;;;;0.00;0.00;;;;;;;;5070516;28;8827;-90
2022/11/20 13:41:27;;;;;;;;;0.00;0.00;;;;;;;;5086230;28;8832;-90
2022/11/20 13:43:53;;;;;;;;;0.00;0.00;;;;;;;;5086973;28;8791;-91
2022/11/20 13:46:24;;;;;;;;;0.00;0.00;;;;;;;;5092280;28;8787;-91
2022/11/20 13:48:50;;;;;;;;;0.00;0.00;;;;;;;;5070706;28;8841;-91
2022/11/20 13:51:23;;;;;;;;;0.00;0.00;;;;;;;;5087065;28;8842;-91
2022/11/20 13:54:07;;;;;;;;;0.00;0.00;;;;;;;;5089933;28;8803;-92
2022/11/20 13:56:51;;;;;;;;;0.00;0.00;;;;;;;;5090790;28;8799;-90
2022/11/20 13:59:38;;;;;;;;;0.00;0.00;;;;;;;;5075568;28;8835;-93
2022/11/20 14:02:09;;;;;;;;;0.00;0.00;;;;;;;;5091426;28;8763;-94
2022/11/20 14:04:36;;;;;;;;;0.00;0.00;;;;;;;;5070742;28;8838;-93
2022/11/20 14:07:01;;;;;;;;;0.00;0.00;;;;;;;;5075809;28;8782;-94
2022/11/20 14:09:27;;;;;;;;;0.00;0.00;;;;;;;;5072308;28;8817;-92
2022/11/20 14:11:53;;;;;;;;;4.00;4.00;;;;;;;;5071814;28;8807;-92
2022/11/20 14:14:20;;;;;;;;;0.00;0.00;;;;;;;;5071622;28;8822;-93
2022/11/20 14:16:45;;;;;;;;;0.00;0.00;;;;;;;;5091805;28;8807;-93
2022/11/20 14:19:17;;;;;;;;;0.00;0.00;;;;;;;;5089281;28;8818;-92
2022/11/20 14:21:42;;;;;;;;;0.00;0.00;;;;;;;;5084798;28;8797;-92
2022/11/20 14:24:10;;;;;;;;;0.00;0.00;;;;;;;;5086746;28;8819;-93
2022/11/20 14:26:37;;;;;;;;;0.00;0.00;;;;;;;;5064884;28;8818;-92
2022/11/20 14:29:02;;;;;;;;;0.00;0.00;;;;;;;;5071158;28;8822;-93
2022/11/20 14:31:28;;;;;;;;;0.00;0.00;;;;;;;;5068696;28;8892;-93
2022/11/20 14:33:54;;;;;;;;;0.00;0.00;;;;;;;;5069722;28;8836;-93
2022/11/20 14:36:24;;;;;;;;;0.00;0.00;;;;;;;;5073576;28;8810;-93
2022/11/20 14:38:50;;;;;;;;;0.00;0.00;;;;;;;;5072960;28;8831;-94
2022/11/20 14:41:20;;;;;;;;;0.00;0.00;;;;;;;;5092368;28;8860;-93
2022/11/20 14:43:46;;;;;;;;;0.00;0.00;;;;;;;;5090366;28;8783;-93
2022/11/20 14:46:12;;;;;;;;;0.00;0.00;;;;;;;;5071389;28;8822;-93
2022/11/20 14:48:43;;;;;;;;;0.00;0.00;;;;;;;;5067887;28;8791;-93
2022/11/20 14:51:09;;;;;;;;;0.00;0.00;;;;;;;;5071602;28;8791;-93
2022/11/20 14:53:34;;;;;;;;;0.00;0.00;;;;;;;;5087600;28;8799;-94
2022/11/20 14:56:01;;;;;;;;;0.00;0.00;;;;;;;;5073997;28;8801;-94
2022/11/20 14:58:27;;;;;;;;;0.00;0.00;;;;;;;;5070357;28;8823;-93
2022/11/20 15:00:57;;;;;;;;;0.00;0.00;;;;;;;;5067812;28;9115;-94
2022/11/20 15:03:22;;;;;;;;;0.00;0.00;;;;;;;;5079390;28;8823;-95
2022/11/20 15:05:49;;;;;;;;;0.00;0.00;;;;;;;;5101395;28;8838;-95
2022/11/20 15:08:14;;;;;;;;;0.00;0.00;;;;;;;;5076197;28;8748;-94
2022/11/20 15:10:45;;;;;;;;;0.00;0.00;;;;;;;;5091508;28;8805;-95